createdAt,value
2023-05-25T00:01:03.495Z,36.10
2023-05-25T00:03:05.334Z,36.58
2023-05-25T00:05:09.118Z,36.28
2023-05-25T00:07:12.097Z,36.61
2023-05-25T00:09:13.724Z,36.94
2023-05-25T00:11:15.376Z,36.76
2023-05-25T00:13:17.095Z,36.25
2023-05-25T00:15:21.583Z,36.69
2023-05-25T00:17:23.217Z,36.32
2023-05-25T00:19:24.876Z,36.24
2023-05-25T00:21:29.555Z,36.71
2023-05-25T00:23:32.584Z,36.43
2023-05-25T00:25:34.193Z,36.81
2023-05-25T00:27:35.802Z,36.86
2023-05-25T00:29:37.411Z,36.79
2023-05-25T00:31:39.417Z,36.80
2023-05-25T00:33:41.149Z,36.83
2023-05-25T00:35:43.335Z,36.70
2023-05-25T00:37:45.133Z,37.01
2023-05-25T00:39:48.061Z,36.89
2023-05-25T00:41:49.893Z,36.74
2023-05-25T00:43:51.580Z,36.84
2023-05-25T00:45:54.224Z,36.44
2023-05-25T00:47:56.273Z,36.89
2023-05-25T00:49:58.048Z,37.10
2023-05-25T00:51:59.844Z,37.07
2023-05-25T00:54:02.076Z,36.74
2023-05-25T00:56:10.074Z,36.57
2023-05-25T00:58:13.186Z,37.41
2023-05-25T01:00:17.691Z,36.99
2023-05-25T01:02:21.326Z,36.85
2023-05-25T01:04:24.098Z,36.94
2023-05-25T01:06:30.290Z,36.74
2023-05-25T01:08:35.593Z,36.96
2023-05-25T01:10:39.477Z,36.95
2023-05-25T01:12:44.814Z,36.89
2023-05-25T01:14:47.385Z,37.08
2023-05-25T01:16:49.599Z,37.25
2023-05-25T01:18:51.410Z,37.37
2023-05-25T01:21:04.120Z,38.13
2023-05-25T01:23:13.175Z,38.51
2023-05-25T01:25:18.733Z,39.36
2023-05-25T01:27:25.044Z,39.62
2023-05-25T01:29:32.041Z,39.82
2023-05-25T01:31:35.647Z,39.87
2023-05-25T01:33:38.460Z,40.23
2023-05-25T01:35:41.913Z,40.51
2023-05-25T01:37:47.187Z,40.65
2023-05-25T01:39:48.837Z,41.09
2023-05-25T01:41:50.520Z,41.28
2023-05-25T01:43:53.054Z,41.40
2023-05-25T01:46:02.545Z,41.82
2023-05-25T01:48:11.835Z,42.23
2023-05-25T01:50:21.702Z,42.49
2023-05-25T01:52:28.603Z,42.00
2023-05-25T01:54:36.962Z,42.18
2023-05-25T01:56:40.019Z,42.10
2023-05-25T01:58:44.464Z,42.32
2023-05-25T02:00:47.924Z,42.13
2023-05-25T02:02:52.516Z,42.37
2023-05-25T02:04:54.775Z,42.31
2023-05-25T02:06:56.888Z,42.29
2023-05-25T02:08:58.637Z,42.36
2023-05-25T02:11:02.012Z,42.43
2023-05-25T02:13:03.902Z,42.79
2023-05-25T02:15:06.710Z,42.98
2023-05-25T02:17:10.812Z,43.34
2023-05-25T02:19:12.891Z,43.38
2023-05-25T02:21:14.490Z,43.26
2023-05-25T02:23:16.157Z,43.40
2023-05-25T02:25:17.839Z,43.61
2023-05-25T02:27:20.931Z,43.76
2023-05-25T02:29:22.575Z,44.12
2023-05-25T02:31:24.213Z,44.11
2023-05-25T02:33:25.803Z,44.03
2023-05-25T02:35:27.470Z,43.56
2023-05-25T02:37:29.202Z,43.68
2023-05-25T02:39:33.666Z,43.57
2023-05-25T02:41:35.296Z,43.70
2023-05-25T02:43:38.301Z,43.51
2023-05-25T02:45:39.860Z,43.38
2023-05-25T02:47:41.529Z,43.74
2023-05-25T02:49:43.187Z,44.08
2023-05-25T02:51:44.874Z,44.12
2023-05-25T02:53:46.582Z,44.37
2023-05-25T02:55:48.163Z,44.34
2023-05-25T02:57:49.788Z,44.73
2023-05-25T02:59:52.832Z,45.08
2023-05-25T03:01:54.419Z,44.78
2023-05-25T03:03:56.667Z,44.94
2023-05-25T03:05:58.321Z,44.93
2023-05-25T03:07:59.921Z,44.88
2023-05-25T03:10:01.635Z,44.91
2023-05-25T03:12:03.924Z,44.95
2023-05-25T03:14:05.662Z,45.21
2023-05-25T03:16:08.778Z,44.91
2023-05-25T03:18:10.445Z,44.87
2023-05-25T03:20:12.781Z,44.86
2023-05-25T03:22:14.515Z,44.83
2023-05-25T03:24:16.223Z,45.00
2023-05-25T03:26:17.815Z,45.13
2023-05-25T03:28:19.388Z,45.36
2023-05-25T03:30:22.067Z,45.68
2023-05-25T03:32:25.239Z,45.65
2023-05-25T03:34:27.004Z,45.57
2023-05-25T03:36:28.639Z,45.87
2023-05-25T03:38:30.257Z,46.05
2023-05-25T03:40:31.855Z,46.38
2023-05-25T03:42:33.464Z,46.40
2023-05-25T03:44:35.062Z,46.61
2023-05-25T03:46:37.239Z,47.03
2023-05-25T03:48:40.298Z,46.94
2023-05-25T03:50:41.884Z,46.84
2023-05-25T03:52:43.463Z,46.94
2023-05-25T03:54:50.651Z,46.99
2023-05-25T03:56:52.242Z,46.79
2023-05-25T03:58:53.809Z,46.86
2023-05-25T04:00:55.410Z,46.77
2023-05-25T04:02:57.269Z,46.67
2023-05-25T04:05:00.366Z,46.67
2023-05-25T04:07:02.051Z,46.57
2023-05-25T04:09:04.227Z,46.16
2023-05-25T04:11:05.796Z,46.37
2023-05-25T04:13:10.489Z,46.35
2023-05-25T04:15:12.249Z,46.47
2023-05-25T04:17:13.799Z,46.60
2023-05-25T04:19:15.499Z,46.56
2023-05-25T04:21:18.582Z,46.24
2023-05-25T04:23:20.158Z,46.01
2023-05-25T04:25:21.761Z,46.04
2023-05-25T04:27:23.561Z,45.76
2023-05-25T04:29:25.233Z,45.98
2023-05-25T04:31:26.928Z,45.97
2023-05-25T04:33:28.723Z,45.74
2023-05-25T04:35:30.399Z,45.79
2023-05-25T04:37:33.877Z,45.46
2023-05-25T04:39:35.507Z,45.04
2023-05-25T04:41:37.070Z,45.00
2023-05-25T04:43:40.412Z,44.91
2023-05-25T04:45:48.047Z,44.37
2023-05-25T04:47:49.836Z,44.58
2023-05-25T04:49:51.604Z,44.80
2023-05-25T04:51:53.489Z,44.60
2023-05-25T04:53:56.456Z,44.68
2023-05-25T04:55:58.167Z,44.69
2023-05-25T04:57:59.911Z,44.77
2023-05-25T05:00:01.592Z,44.53
2023-05-25T05:02:03.435Z,44.17
2023-05-25T05:04:05.407Z,44.53
2023-05-25T05:06:07.167Z,44.24
2023-05-25T05:08:08.813Z,44.66
2023-05-25T05:10:12.005Z,44.56
2023-05-25T05:12:13.808Z,45.34
2023-05-25T05:14:15.887Z,45.38
2023-05-25T05:16:17.557Z,45.15
2023-05-25T05:18:19.245Z,45.07
2023-05-25T05:20:21.049Z,44.92
2023-05-25T05:22:22.715Z,45.27
2023-05-25T05:24:24.371Z,45.72
2023-05-25T05:26:27.407Z,45.16
2023-05-25T05:28:29.511Z,44.44
2023-05-25T05:30:33.979Z,44.37
2023-05-25T05:32:35.709Z,44.12
2023-05-25T05:34:37.368Z,44.00
2023-05-25T05:36:52.678Z,43.62
2023-05-25T05:38:58.728Z,43.69
2023-05-25T05:41:00.334Z,43.78
2023-05-25T05:43:03.325Z,43.77
2023-05-25T05:45:06.019Z,44.58
2023-05-25T05:47:07.713Z,43.11
2023-05-25T05:49:09.345Z,43.28
2023-05-25T05:51:11.304Z,43.47
2023-05-25T05:53:12.896Z,43.31
2023-05-25T05:55:14.500Z,43.30
2023-05-25T05:57:16.167Z,43.78
2023-05-25T05:59:20.872Z,43.47
2023-05-25T06:01:22.619Z,43.38
2023-05-25T06:03:24.282Z,43.47
2023-05-25T06:05:25.960Z,44.23
2023-05-25T06:07:27.638Z,44.27
2023-05-25T06:09:29.305Z,43.98
2023-05-25T06:11:30.919Z,43.94
2023-05-25T06:13:32.532Z,44.00
2023-05-25T06:15:35.706Z,43.98
2023-05-25T06:17:37.396Z,43.76
2023-05-25T06:19:39.061Z,43.46
2023-05-25T06:21:40.670Z,42.28
2023-05-25T06:23:42.263Z,42.30
2023-05-25T06:25:44.397Z,42.23
2023-05-25T06:27:46.505Z,43.02
2023-05-25T06:29:48.134Z,42.66
2023-05-25T06:31:51.178Z,42.56
2023-05-25T06:33:52.893Z,42.16
2023-05-25T06:35:56.332Z,41.78
2023-05-25T06:37:58.168Z,42.46
2023-05-25T06:39:59.867Z,42.43
2023-05-25T06:42:01.484Z,42.01
2023-05-25T06:44:03.126Z,42.28
2023-05-25T06:46:04.894Z,41.72
2023-05-25T06:48:08.001Z,42.04
2023-05-25T06:50:10.216Z,41.26
2023-05-25T06:52:11.952Z,41.06
2023-05-25T06:54:13.605Z,41.45
2023-05-25T06:56:15.181Z,40.83
2023-05-25T06:58:16.992Z,41.75
2023-05-25T07:00:21.835Z,40.92
2023-05-25T07:02:23.513Z,41.18
2023-05-25T07:04:26.555Z,40.12
2023-05-25T07:06:29.522Z,39.71
2023-05-25T07:08:31.147Z,40.00
2023-05-25T07:10:33.582Z,39.92
2023-05-25T07:12:35.158Z,40.10
2023-05-25T07:14:37.140Z,39.42
2023-05-25T07:16:38.862Z,40.72
2023-05-25T07:18:40.500Z,41.20
2023-05-25T07:20:44.023Z,37.41
2023-05-25T07:22:47.330Z,38.17
2023-05-25T07:24:49.609Z,41.81
2023-05-25T07:26:51.231Z,37.89
2023-05-25T07:28:52.969Z,37.74
2023-05-25T07:30:54.605Z,38.26
2023-05-25T07:32:56.282Z,38.37
2023-05-25T07:34:57.976Z,38.36
2023-05-25T07:37:01.048Z,43.18
2023-05-25T07:39:05.181Z,43.13
2023-05-25T07:41:07.497Z,42.61
2023-05-25T07:43:09.240Z,42.40
2023-05-25T07:45:11.599Z,38.95
2023-05-25T07:47:13.413Z,40.26
2023-05-25T07:49:15.136Z,41.06
2023-05-25T07:51:16.938Z,40.68
2023-05-25T07:53:19.943Z,40.29
2023-05-25T07:55:21.718Z,38.42
2023-05-25T07:57:23.377Z,39.15
2023-05-25T07:59:26.480Z,38.45
2023-05-25T08:01:28.145Z,39.42
2023-05-25T08:03:47.396Z,38.31
2023-05-25T08:05:51.185Z,38.86
2023-05-25T08:07:52.873Z,38.88
2023-05-25T08:09:55.899Z,38.54
2023-05-25T08:12:18.711Z,38.43
2023-05-25T08:14:21.707Z,38.69
2023-05-25T08:16:23.371Z,38.23
2023-05-25T08:18:25.133Z,38.13
2023-05-25T08:20:26.801Z,37.66
2023-05-25T08:22:28.771Z,37.73
2023-05-25T08:24:30.513Z,36.06
2023-05-25T08:26:52.364Z,36.02
2023-05-25T08:28:55.115Z,37.30
2023-05-25T08:30:56.828Z,38.42
2023-05-25T08:32:58.633Z,38.54
2023-05-25T08:35:00.346Z,38.47
2023-05-25T08:37:02.038Z,38.35
2023-05-25T08:39:04.120Z,35.98
2023-05-25T08:41:07.171Z,37.57
2023-05-25T08:43:10.389Z,38.21
2023-05-25T08:45:22.615Z,38.17
2023-05-25T08:47:31.613Z,38.32
2023-05-25T08:49:35.466Z,37.98
2023-05-25T08:51:39.064Z,37.73
2023-05-25T08:53:43.491Z,37.65
2023-05-25T08:55:47.525Z,37.72
2023-05-25T08:57:54.802Z,37.37
2023-05-25T09:00:03.704Z,37.16
2023-05-25T09:02:21.223Z,36.55
2023-05-25T09:04:23.642Z,37.15
2023-05-25T09:06:26.064Z,36.70
2023-05-25T09:08:28.055Z,36.41
2023-05-25T09:10:31.332Z,36.04
2023-05-25T09:12:33.396Z,36.40
2023-05-25T09:14:35.552Z,35.62
2023-05-25T09:16:38.828Z,35.75
2023-05-25T09:18:40.625Z,35.17
2023-05-25T09:20:44.352Z,36.34
2023-05-25T09:22:48.125Z,36.63
2023-05-25T09:24:49.903Z,36.32
2023-05-25T09:26:51.902Z,36.36
2023-05-25T09:28:53.534Z,35.40
2023-05-25T09:30:56.446Z,36.61
2023-05-25T09:33:09.872Z,32.70
2023-05-25T09:35:13.299Z,34.26
2023-05-25T09:37:16.201Z,34.20
2023-05-25T09:39:18.275Z,35.65
2023-05-25T09:41:20.298Z,34.59
2023-05-25T09:43:36.434Z,34.20
2023-05-25T09:45:42.274Z,36.36
2023-05-25T09:47:44.048Z,36.48
2023-05-25T09:49:47.133Z,36.02
2023-05-25T09:51:49.561Z,34.68
2023-05-25T09:53:51.424Z,33.90
2023-05-25T09:55:54.504Z,33.54
2023-05-25T09:57:57.086Z,34.38
2023-05-25T09:59:59.025Z,36.47
2023-05-25T10:02:01.123Z,34.96
2023-05-25T10:04:04.669Z,36.01
2023-05-25T10:06:08.605Z,34.97
2023-05-25T10:08:11.377Z,33.50
2023-05-25T10:10:14.825Z,34.07
2023-05-25T10:12:19.803Z,35.34
2023-05-25T10:14:29.092Z,37.02
2023-05-25T10:16:34.126Z,33.98
2023-05-25T10:18:39.919Z,33.87
2023-05-25T10:20:42.256Z,33.35
2023-05-25T10:22:51.653Z,33.67
2023-05-25T10:24:57.061Z,35.30
2023-05-25T10:29:25.292Z,33.24
2023-05-25T10:31:27.554Z,33.19
2023-05-25T10:35:46.863Z,33.43
2023-05-25T10:37:58.883Z,33.25
2023-05-25T10:40:02.106Z,33.71
2023-05-25T10:42:07.527Z,33.70
2023-05-25T10:44:09.943Z,35.26
2023-05-25T10:46:11.951Z,33.67
2023-05-25T10:48:14.370Z,33.26
2023-05-25T10:50:20.497Z,35.19
2023-05-25T11:10:15.233Z,34.41
2023-05-25T11:12:20.700Z,34.00
2023-05-25T11:14:23.314Z,36.09
2023-05-25T11:16:32.087Z,35.48
2023-05-25T11:18:37.755Z,32.31
2023-05-25T11:20:39.500Z,34.60
2023-05-25T11:22:41.295Z,35.34
2023-05-25T11:24:43.145Z,35.76
2023-05-25T11:26:59.909Z,34.44
2023-05-25T11:29:12.028Z,31.67
2023-05-25T11:31:13.976Z,34.98
2023-05-25T11:33:15.953Z,32.10
2023-05-25T11:35:17.739Z,34.71
2023-05-25T11:37:20.900Z,32.24
2023-05-25T11:39:25.137Z,33.77
2023-05-25T11:41:27.087Z,30.95
2023-05-25T11:43:33.792Z,32.47
2023-05-25T11:45:35.450Z,33.72
2023-05-25T11:47:38.151Z,32.53
2023-05-25T11:49:40.684Z,32.89
2023-05-25T11:51:43.310Z,31.85
2023-05-25T11:53:45.622Z,33.81
2023-05-25T11:55:50.917Z,34.10
2023-05-25T11:57:56.517Z,33.49
2023-05-25T12:00:00.760Z,30.72
2023-05-25T12:02:04.212Z,30.84
2023-05-25T12:04:09.066Z,30.93
2023-05-25T12:06:23.842Z,34.43
2023-05-25T12:08:32.311Z,34.75
2023-05-25T12:10:34.300Z,34.19
2023-05-25T12:12:41.270Z,30.41
2023-05-25T12:14:47.635Z,30.26
2023-05-25T12:16:51.229Z,32.56
2023-05-25T12:18:54.953Z,30.96
2023-05-25T12:20:56.758Z,31.17
2023-05-25T12:22:58.569Z,29.30
2023-05-25T12:25:00.307Z,29.15
2023-05-25T12:27:01.950Z,29.19
2023-05-25T12:29:05.482Z,26.85
2023-05-25T12:31:23.488Z,27.26
2023-05-25T12:33:26.659Z,27.24
2023-05-25T12:35:28.345Z,25.99
2023-05-25T12:37:30.013Z,28.87
2023-05-25T12:39:33.999Z,24.71
2023-05-25T12:41:54.601Z,24.55
2023-05-25T12:43:57.134Z,24.04
2023-05-25T12:45:58.849Z,24.15
2023-05-25T12:48:02.206Z,24.51
2023-05-25T12:50:14.265Z,23.19
2023-05-25T12:52:34.505Z,25.09
2023-05-25T12:54:41.781Z,23.41
2023-05-25T12:56:55.827Z,23.81
2023-05-25T12:59:14.190Z,24.80
2023-05-25T13:01:15.824Z,24.70
2023-05-25T13:03:17.805Z,24.04
2023-05-25T13:05:24.661Z,24.59
2023-05-25T13:07:26.288Z,23.56
2023-05-25T13:09:28.328Z,23.73
2023-05-25T13:11:29.965Z,21.06
2023-05-25T13:13:31.678Z,22.32
2023-05-25T13:15:33.512Z,22.94
2023-05-25T13:17:35.232Z,23.16
2023-05-25T13:19:36.934Z,23.07
2023-05-25T13:21:40.034Z,23.38
2023-05-25T13:23:41.931Z,22.95
2023-05-25T13:25:43.554Z,23.10
2023-05-25T13:27:46.766Z,23.10
2023-05-25T13:29:48.557Z,23.13
2023-05-25T13:31:50.222Z,23.81
2023-05-25T13:33:51.917Z,21.22
2023-05-25T13:35:53.523Z,23.21
2023-05-25T13:37:56.502Z,23.08
2023-05-25T13:39:58.155Z,21.22
2023-05-25T13:41:59.803Z,22.92
2023-05-25T13:44:01.432Z,22.23
2023-05-25T13:46:03.193Z,21.13
2023-05-25T13:48:05.057Z,20.50
2023-05-25T13:50:07.400Z,22.95
2023-05-25T13:52:09.052Z,22.49
2023-05-25T13:54:12.034Z,19.96
2023-05-25T13:56:13.632Z,21.02
2023-05-25T13:58:15.306Z,20.55
2023-05-25T14:00:17.533Z,22.68
2023-05-25T14:02:19.225Z,21.92
2023-05-25T14:04:21.059Z,20.76
2023-05-25T14:06:22.663Z,21.19
2023-05-25T14:08:24.319Z,20.91
2023-05-25T14:10:27.327Z,22.84
2023-05-25T14:12:28.948Z,24.42
2023-05-25T14:14:31.903Z,24.88
2023-05-25T14:16:34.404Z,25.18
2023-05-25T14:18:36.108Z,25.80
2023-05-25T14:20:38.216Z,25.89
2023-05-25T14:22:39.940Z,26.13
2023-05-25T14:24:42.043Z,26.51
2023-05-25T14:26:45.137Z,24.89
2023-05-25T14:28:46.773Z,27.55
2023-05-25T14:30:48.402Z,24.02
2023-05-25T14:32:50.535Z,27.51
2023-05-25T14:34:52.239Z,27.08
2023-05-25T14:36:53.829Z,28.05
2023-05-25T14:38:55.419Z,28.68
2023-05-25T14:40:57.087Z,28.50
2023-05-25T14:43:00.128Z,27.86
2023-05-25T14:45:02.234Z,25.92
2023-05-25T14:47:04.592Z,27.95
2023-05-25T14:49:06.368Z,26.90
2023-05-25T14:51:08.072Z,28.32
2023-05-25T14:53:09.745Z,27.11
2023-05-25T14:55:11.386Z,29.29
2023-05-25T14:57:13.129Z,29.09
2023-05-25T14:59:16.164Z,29.67
2023-05-25T15:01:17.843Z,29.33
2023-05-25T15:03:19.677Z,30.10
2023-05-25T15:05:21.446Z,29.63
2023-05-25T15:07:23.171Z,30.66
2023-05-25T15:09:24.791Z,30.20
2023-05-25T15:11:26.679Z,30.36
2023-05-25T15:13:28.284Z,31.01
2023-05-25T15:15:31.202Z,31.14
2023-05-25T15:17:32.986Z,31.07
2023-05-25T15:19:34.697Z,30.97
2023-05-25T15:21:36.283Z,31.15
2023-05-25T15:23:37.976Z,30.94
2023-05-25T15:25:39.712Z,31.44
2023-05-25T15:27:41.301Z,31.75
2023-05-25T15:29:42.916Z,31.64
2023-05-25T15:31:46.099Z,31.92
2023-05-25T15:33:56.331Z,31.45
2023-05-25T15:36:00.167Z,32.29
2023-05-25T15:38:01.882Z,30.51
2023-05-25T15:40:03.907Z,30.61
2023-05-25T15:42:06.383Z,32.42
2023-05-25T15:44:08.017Z,31.39
2023-05-25T15:46:09.732Z,31.84
2023-05-25T15:48:12.953Z,32.15
2023-05-25T15:50:14.672Z,32.28
2023-05-25T15:52:16.330Z,32.32
2023-05-25T15:54:17.947Z,31.97
2023-05-25T15:56:19.525Z,32.40
2023-05-25T15:58:21.191Z,32.21
2023-05-25T16:00:23.281Z,32.53
2023-05-25T16:02:24.976Z,31.64
2023-05-25T16:04:28.082Z,31.41
2023-05-25T16:06:29.968Z,32.54
2023-05-25T16:08:31.705Z,32.58
2023-05-25T16:10:33.347Z,31.99
2023-05-25T16:12:35.390Z,32.06
2023-05-25T16:14:37.056Z,31.82
2023-05-25T16:16:38.779Z,31.31
2023-05-25T16:18:40.458Z,32.02
2023-05-25T16:20:43.585Z,30.79
2023-05-25T16:22:45.264Z,32.77
2023-05-25T16:24:47.149Z,32.14
2023-05-25T16:26:48.796Z,32.88
2023-05-25T16:28:50.487Z,32.45
2023-05-25T16:30:52.393Z,33.00
2023-05-25T16:32:54.116Z,33.30
2023-05-25T16:34:55.796Z,33.33
2023-05-25T16:36:58.846Z,32.00
2023-05-25T16:39:00.701Z,32.85
2023-05-25T16:41:02.327Z,31.80
2023-05-25T16:43:04.161Z,31.79
2023-05-25T16:45:07.208Z,31.14
2023-05-25T16:47:08.889Z,32.66
2023-05-25T16:49:10.557Z,32.32
2023-05-25T16:51:12.310Z,30.30
2023-05-25T16:53:15.441Z,32.11
2023-05-25T16:55:17.132Z,32.15
2023-05-25T16:57:18.847Z,31.38
2023-05-25T16:59:20.456Z,29.93
2023-05-25T17:01:22.313Z,31.45
2023-05-25T17:03:24.134Z,29.09
2023-05-25T17:05:25.904Z,29.52
2023-05-25T17:07:27.670Z,30.96
2023-05-25T17:09:30.651Z,28.43
2023-05-25T17:11:32.179Z,32.20
2023-05-25T17:13:33.897Z,32.50
2023-05-25T17:15:35.555Z,32.76
2023-05-25T17:17:37.199Z,32.50
2023-05-25T17:19:38.965Z,32.57
2023-05-25T17:21:40.842Z,32.75
2023-05-25T17:23:42.463Z,31.10
2023-05-25T17:25:45.681Z,32.84
2023-05-25T17:27:47.666Z,33.05
2023-05-25T17:29:49.371Z,33.41
2023-05-25T17:31:51.317Z,33.34
2023-05-25T17:33:52.977Z,33.78
2023-05-25T17:35:54.598Z,34.30
2023-05-25T17:37:56.397Z,33.76
2023-05-25T17:39:58.056Z,34.47
2023-05-25T17:42:01.141Z,34.41
2023-05-25T17:44:05.656Z,33.61
2023-05-25T17:46:07.699Z,34.49
2023-05-25T17:48:11.950Z,34.09
2023-05-25T17:50:13.808Z,34.42
2023-05-25T17:52:15.544Z,34.28
2023-05-25T17:54:17.261Z,34.46
2023-05-25T17:56:18.975Z,34.53
2023-05-25T17:58:22.184Z,34.86
2023-05-25T18:00:24.137Z,34.29
2023-05-25T18:02:26.050Z,33.94
2023-05-25T18:04:27.933Z,34.41
2023-05-25T18:06:29.855Z,34.72
2023-05-25T18:08:31.477Z,33.59
2023-05-25T18:10:33.105Z,33.98
2023-05-25T18:12:34.726Z,34.18
2023-05-25T18:14:37.743Z,34.93
2023-05-25T18:16:39.556Z,35.29
2023-05-25T18:18:41.354Z,34.34
2023-05-25T18:20:43.229Z,34.22
2023-05-25T18:22:44.974Z,34.87
2023-05-25T18:24:46.615Z,35.20
2023-05-25T18:26:48.493Z,33.93
2023-05-25T18:28:50.112Z,34.95
2023-05-25T18:30:53.305Z,35.57
2023-05-25T18:32:55.043Z,34.46
2023-05-25T18:34:57.469Z,34.92
2023-05-25T18:36:59.176Z,34.65
2023-05-25T18:39:00.809Z,34.26
2023-05-25T18:41:02.631Z,34.32
2023-05-25T18:43:04.300Z,34.80
2023-05-25T18:45:06.866Z,34.48
2023-05-25T18:47:09.890Z,35.47
2023-05-25T18:49:11.589Z,35.30
2023-05-25T18:51:13.234Z,36.01
2023-05-25T18:53:14.985Z,35.86
2023-05-25T18:55:17.347Z,35.89
2023-05-25T18:57:19.018Z,35.59
2023-05-25T18:59:20.661Z,35.50
2023-05-25T19:01:23.619Z,35.87
2023-05-25T19:03:27.886Z,36.27
2023-05-25T19:05:29.613Z,35.18
2023-05-25T19:07:31.227Z,36.03
2023-05-25T19:09:32.889Z,35.42
2023-05-25T19:11:34.474Z,35.37
2023-05-25T19:13:36.184Z,35.31
2023-05-25T19:15:37.919Z,34.46
2023-05-25T19:17:39.633Z,34.43
2023-05-25T19:19:42.711Z,34.42
2023-05-25T19:21:44.387Z,34.69
2023-05-25T19:23:46.067Z,34.92
2023-05-25T19:25:47.938Z,34.97
2023-05-25T19:27:49.761Z,35.13
2023-05-25T19:29:51.418Z,35.21
2023-05-25T19:31:53.076Z,35.14
2023-05-25T19:33:54.839Z,35.13
2023-05-25T19:35:57.850Z,35.64
2023-05-25T19:38:01.188Z,35.65
2023-05-25T19:40:04.034Z,36.16
2023-05-25T19:42:05.918Z,36.54
2023-05-25T19:44:07.658Z,36.27
2023-05-25T19:46:09.582Z,36.74
2023-05-25T19:48:11.478Z,37.09
2023-05-25T19:50:13.516Z,37.15
2023-05-25T19:52:17.107Z,37.29
2023-05-25T19:54:21.360Z,37.25
2023-05-25T19:56:22.962Z,37.13
2023-05-25T19:58:24.850Z,37.34
2023-05-25T20:00:27.361Z,37.33
2023-05-25T20:02:29.254Z,37.47
2023-05-25T20:04:31.086Z,37.68
2023-05-25T20:06:32.713Z,37.87
2023-05-25T20:08:36.926Z,37.84
2023-05-25T20:10:38.857Z,37.74
2023-05-25T20:12:40.496Z,38.05
2023-05-25T20:14:43.628Z,38.19
2023-05-25T20:16:45.306Z,38.08
2023-05-25T20:18:47.002Z,38.27
2023-05-25T20:20:48.676Z,37.99
2023-05-25T20:22:50.550Z,38.17
2023-05-25T20:24:53.535Z,37.91
2023-05-25T20:26:55.455Z,37.80
2023-05-25T20:28:57.398Z,38.30
2023-05-25T20:30:59.100Z,37.96
2023-05-25T20:33:00.805Z,37.98
2023-05-25T20:35:02.572Z,38.29
2023-05-25T20:37:04.282Z,38.19
2023-05-25T20:39:05.923Z,37.98
2023-05-25T20:41:09.526Z,38.17
2023-05-25T20:43:11.186Z,38.04
2023-05-25T20:45:12.872Z,38.03
2023-05-25T20:47:14.539Z,38.13
2023-05-25T20:49:16.656Z,38.60
2023-05-25T20:51:18.272Z,38.74
2023-05-25T20:53:19.924Z,39.08
2023-05-25T20:55:21.658Z,39.01
2023-05-25T20:57:24.647Z,39.30
2023-05-25T20:59:26.292Z,39.50
2023-05-25T21:01:27.973Z,39.64
2023-05-25T21:03:29.741Z,39.34
2023-05-25T21:05:31.615Z,39.51
2023-05-25T21:07:33.253Z,39.64
2023-05-25T21:09:34.904Z,40.42
2023-05-25T21:11:36.554Z,40.70
2023-05-25T21:13:39.540Z,40.25
2023-05-25T21:15:41.200Z,40.26
2023-05-25T21:17:42.845Z,40.17
2023-05-25T21:19:44.435Z,40.46
2023-05-25T21:21:46.048Z,40.36
2023-05-25T21:23:47.739Z,39.98
2023-05-25T21:25:49.368Z,39.89
2023-05-25T21:27:51.165Z,40.13
2023-05-25T21:29:54.417Z,40.23
2023-05-25T21:31:56.044Z,39.89
2023-05-25T21:33:58.842Z,40.02
2023-05-25T21:36:01.907Z,40.09
2023-05-25T21:38:03.537Z,40.13
2023-05-25T21:40:08.226Z,40.25
2023-05-25T21:42:10.052Z,40.23
2023-05-25T21:44:11.873Z,40.29
2023-05-25T21:46:14.841Z,40.59
2023-05-25T21:48:16.552Z,40.93
2023-05-25T21:50:18.762Z,40.66
2023-05-25T21:52:20.661Z,40.82
2023-05-25T21:54:22.305Z,40.57
2023-05-25T21:56:24.059Z,40.54
2023-05-25T21:58:25.677Z,40.65
2023-05-25T22:00:27.541Z,40.77
2023-05-25T22:02:30.583Z,40.90
2023-05-25T22:04:32.361Z,40.78
2023-05-25T22:06:34.027Z,40.67
2023-05-25T22:08:35.726Z,40.72
2023-05-25T22:10:38.292Z,40.65
2023-05-25T22:12:39.950Z,41.09
2023-05-25T22:14:41.523Z,41.04
2023-05-25T22:16:43.307Z,41.23
2023-05-25T22:18:46.309Z,41.58
2023-05-25T22:20:47.940Z,41.97
2023-05-25T22:22:49.639Z,42.02
2023-05-25T22:24:51.538Z,41.55
2023-05-25T22:26:53.141Z,41.64
2023-05-25T22:28:54.893Z,41.69
2023-05-25T22:30:56.707Z,41.99
2023-05-25T22:32:58.512Z,41.79
2023-05-25T22:35:01.661Z,41.60
2023-05-25T22:37:03.421Z,41.77
2023-05-25T22:39:05.052Z,41.38
2023-05-25T22:41:07.219Z,41.30
2023-05-25T22:43:08.905Z,41.23
2023-05-25T22:45:11.080Z,41.88
2023-05-25T22:47:13.048Z,41.80
2023-05-25T22:49:14.778Z,41.56
2023-05-25T22:51:17.790Z,41.47
2023-05-25T22:53:19.391Z,41.79
2023-05-25T22:55:21.244Z,42.22
2023-05-25T22:57:22.844Z,41.84
2023-05-25T22:59:24.433Z,42.15
2023-05-25T23:01:26.110Z,41.64
2023-05-25T23:03:27.881Z,41.79
2023-05-25T23:05:29.672Z,42.29
2023-05-25T23:07:32.723Z,42.50
2023-05-25T23:09:34.339Z,42.24
2023-05-25T23:11:35.992Z,41.97
2023-05-25T23:13:37.614Z,42.37
2023-05-25T23:15:39.641Z,42.17
2023-05-25T23:17:41.380Z,42.26
2023-05-25T23:19:43.188Z,42.17
2023-05-25T23:21:44.823Z,41.99
2023-05-25T23:23:48.114Z,42.52
2023-05-25T23:25:50.077Z,42.17
2023-05-25T23:27:51.924Z,42.30
2023-05-25T23:29:53.698Z,41.91
2023-05-25T23:31:55.376Z,42.08
2023-05-25T23:33:57.107Z,42.44
2023-05-25T23:35:59.050Z,42.40
2023-05-25T23:38:00.733Z,42.17
2023-05-25T23:40:05.099Z,42.57
2023-05-25T23:42:07.391Z,42.37
2023-05-25T23:44:09.035Z,42.85
2023-05-25T23:46:10.721Z,42.71
2023-05-25T23:48:12.484Z,42.93
2023-05-25T23:50:14.155Z,43.12
2023-05-25T23:52:15.920Z,43.04
2023-05-25T23:54:17.505Z,43.21
2023-05-25T23:56:20.606Z,43.35
2023-05-25T23:58:22.184Z,43.09
